Time;durP1;ratioP1;P1;durP2;ratioP2;P2;SDS_P1;SDS_P2;PMS_P1;PMS_P2;Temp;Humidity;BMP_temperature;BMP_pressure;BME280_temperature;BME280_humidity;BME280_pressure;Samples;Min_cycle;Max_cycle;Signal;HPM_P1;HPM_P2
2021/08/16 00:00:05;;;;;;;14.07;5.40;;;;;;;24.99;41.83;98588.59;5056862;28;20053;-91
2021/08/16 00:02:31;;;;;;;11.55;5.18;;;;;;;24.95;41.92;98589.84;5053590;28;20045;-92
2021/08/16 00:04:58;;;;;;;13.45;5.57;;;;;;;24.83;41.98;98587.38;5056219;28;20124;-90
2021/08/16 00:07:25;;;;;;;10.95;5.30;;;;;;;24.82;42.05;98580.22;5054318;28;20124;-92
2021/08/16 00:09:51;;;;;;;14.93;5.20;;;;;;;24.71;42.19;98565.72;5057443;28;20079;-92
2021/08/16 00:12:16;;;;;;;13.75;5.63;;;;;;;24.82;41.87;98581.06;5054473;28;20049;-91
2021/08/16 00:14:42;;;;;;;12.75;5.82;;;;;;;24.88;41.85;98585.13;5053880;28;20136;-93
2021/08/16 00:17:08;;;;;;;14.55;5.22;;;;;;;24.89;41.66;98578.66;5055307;28;20071;-92
2021/08/16 00:19:34;;;;;;;16.25;5.38;;;;;;;24.89;42.06;98584.09;5054690;28;20469;-92
2021/08/16 00:22:00;;;;;;;8.68;5.10;;;;;;;24.84;42.25;98583.66;5054495;28;20075;-92
2021/08/16 00:24:27;;;;;;;18.65;5.47;;;;;;;24.75;42.17;98580.75;5056562;28;20445;-92
2021/08/16 00:26:53;;;;;;;18.65;5.70;;;;;;;24.69;42.29;98578.56;5056707;28;20056;-92
2021/08/16 00:29:19;;;;;;;15.80;5.32;;;;;;;24.65;42.38;98570.81;5055125;28;20037;-91
2021/08/16 00:31:45;;;;;;;14.52;5.13;;;;;;;24.65;42.63;98588.00;5055179;28;20376;-91
2021/08/16 00:34:11;;;;;;;14.05;6.38;;;;;;;24.55;42.64;98568.06;5052622;28;20820;-90
2021/08/16 00:36:36;;;;;;;12.60;5.32;;;;;;;24.48;42.57;98558.69;5052739;28;20045;-91
2021/08/16 00:39:03;;;;;;;13.82;5.72;;;;;;;24.47;42.36;98559.69;5052539;28;20037;-93
2021/08/16 00:41:31;;;;;;;12.63;5.50;;;;;;;24.48;42.33;98556.84;5053672;28;20040;-90
2021/08/16 00:43:57;;;;;;;14.57;5.43;;;;;;;24.47;42.35;98563.25;5056396;28;20044;-92
2021/08/16 00:46:23;;;;;;;11.07;5.03;;;;;;;24.57;41.95;98564.22;5051972;28;20143;-91
2021/08/16 00:48:48;;;;;;;17.55;6.05;;;;;;;24.55;41.55;98562.63;5052052;28;20029;-92
2021/08/16 00:51:15;;;;;;;16.88;4.97;;;;;;;24.58;41.37;98570.50;5052860;28;20025;-92
2021/08/16 00:53:41;;;;;;;14.43;5.63;;;;;;;24.52;41.17;98563.75;5054475;28;20041;-92
2021/08/16 00:56:08;;;;;;;13.55;5.50;;;;;;;24.43;40.84;98550.09;5054394;28;20029;-90
2021/08/16 00:58:35;;;;;;;20.83;5.45;;;;;;;24.62;40.39;98565.66;5054052;28;20587;-91
2021/08/16 01:01:02;;;;;;;13.38;5.60;;;;;;;24.67;39.76;98566.97;5051206;28;20044;-90
2021/08/16 01:03:29;;;;;;;14.93;4.97;;;;;;;24.55;39.45;98544.47;5052445;28;20037;-91
2021/08/16 01:05:55;;;;;;;12.05;5.50;;;;;;;24.70;39.54;98571.28;5053438;28;20041;-90
2021/08/16 01:08:21;;;;;;;14.82;5.03;;;;;;;24.71;39.26;98568.41;5052152;28;20079;-91
2021/08/16 01:10:49;;;;;;;14.52;5.22;;;;;;;24.69;38.66;98567.69;5056559;28;20467;-92
2021/08/16 01:13:15;;;;;;;13.20;4.80;;;;;;;24.85;38.41;98574.50;5052247;28;20770;-91
2021/08/16 01:15:58;;;;;;;19.77;5.03;;;;;;;24.92;37.64;98576.53;5054257;28;20461;-91
2021/08/16 01:18:25;;;;;;;16.77;5.82;;;;;;;25.16;37.42;98580.78;5053730;28;20104;-92
2021/08/16 01:20:51;;;;;;;23.50;5.93;;;;;;;25.21;37.43;98583.97;5052905;28;20101;-91
2021/08/16 01:23:17;;;;;;;12.25;5.10;;;;;;;25.18;37.30;98579.63;5056731;28;20041;-91
2021/08/16 01:25:46;;;;;;;17.70;5.00;;;;;;;25.17;37.62;98569.72;5053936;28;20128;-90
2021/08/16 01:28:13;;;;;;;16.75;5.05;;;;;;;25.19;37.60;98564.16;5054088;28;20041;-91
2021/08/16 01:30:39;;;;;;;18.38;5.90;;;;;;;25.11;37.91;98564.88;5045907;28;20033;-92
2021/08/16 01:33:05;;;;;;;18.10;5.60;;;;;;;24.93;38.18;98552.91;5052383;28;20037;-90
2021/08/16 01:35:31;;;;;;;18.95;5.25;;;;;;;24.79;38.25;98555.00;5053843;28;20041;-92
2021/08/16 01:37:57;;;;;;;16.35;5.50;;;;;;;24.75;38.38;98561.72;5053835;28;20037;-92
2021/08/16 01:40:22;;;;;;;14.68;5.68;;;;;;;24.71;39.26;98575.72;5056112;28;20045;-92
2021/08/16 01:42:48;;;;;;;9.68;5.35;;;;;;;24.65;41.55;98588.00;5057238;28;20091;-90
2021/08/16 01:45:15;;;;;;;9.68;5.07;;;;;;;24.55;42.78;98598.84;5052698;28;20041;-91
2021/08/16 01:47:41;;;;;;;12.07;5.75;;;;;;;24.34;43.38;98578.94;5057624;28;20477;-92
2021/08/16 01:50:08;;;;;;;13.55;5.32;;;;;;;24.34;43.60;98598.81;5057643;28;20064;-92
2021/08/16 01:52:34;;;;;;;14.30;5.38;;;;;;;24.08;43.15;98589.31;5055088;28;20051;-91
2021/08/16 01:55:00;;;;;;;12.63;5.47;;;;;;;23.95;43.05;98579.50;5055820;28;20041;-89
2021/08/16 01:57:25;;;;;;;13.55;5.70;;;;;;;23.95;43.37;98574.06;5062818;28;20041;-91
2021/08/16 01:59:51;;;;;;;10.40;5.57;;;;;;;23.78;43.35;98550.19;5057164;28;20049;-92
2021/08/16 02:02:18;;;;;;;17.10;5.50;;;;;;;23.63;43.90;98557.75;5054810;28;20051;-91
2021/08/16 02:04:47;;;;;;;13.18;5.10;;;;;;;23.50;44.99;98557.91;5055828;28;20037;-91
2021/08/16 02:07:13;;;;;;;14.77;6.00;;;;;;;23.41;44.59;98549.69;5052992;28;20040;-91
2021/08/16 02:09:39;;;;;;;17.23;6.80;;;;;;;23.37;44.18;98557.22;5055637;28;20372;-92
2021/08/16 02:12:05;;;;;;;11.48;5.68;;;;;;;23.40;43.79;98565.13;5056944;28;20110;-91
2021/08/16 02:14:31;;;;;;;14.00;5.88;;;;;;;23.29;43.55;98548.84;5057153;28;20033;-93
2021/08/16 02:16:57;;;;;;;13.60;5.80;;;;;;;23.42;42.82;98567.69;5053417;28;20033;-90
2021/08/16 02:19:24;;;;;;;16.75;5.90;;;;;;;23.52;43.08;98549.66;5055260;28;20037;-91
2021/08/16 02:21:50;;;;;;;11.93;5.80;;;;;;;23.69;42.27;98572.69;5055506;28;20091;-91
2021/08/16 02:24:15;;;;;;;15.80;6.05;;;;;;;23.69;42.02;98567.25;5056760;28;20037;-91
2021/08/16 02:26:41;;;;;;;14.82;6.68;;;;;;;23.72;42.15;98566.97;5056790;28;20039;-91
2021/08/16 02:29:09;;;;;;;14.75;6.85;;;;;;;23.73;42.28;98569.56;5058796;28;20037;-91
2021/08/16 02:31:35;;;;;;;15.27;6.33;;;;;;;23.74;42.16;98581.28;5053326;28;20128;-91
2021/08/16 02:34:01;;;;;;;18.40;7.22;;;;;;;23.64;42.31;98551.34;5056881;28;20060;-91
2021/08/16 02:36:28;;;;;;;19.42;6.63;;;;;;;23.73;42.60;98564.13;5056884;28;20445;-93
2021/08/16 02:38:54;;;;;;;16.15;6.68;;;;;;;23.63;43.03;98570.47;5055478;28;20057;-91
2021/08/16 02:41:27;;;;;;;16.63;7.18;;;;;;;23.55;43.59;98577.41;5055135;28;20567;-91
2021/08/16 02:43:53;;;;;;;13.80;6.63;;;;;;;23.48;43.69;98587.03;5056648;28;20045;-90
2021/08/16 02:46:19;;;;;;;16.13;6.32;;;;;;;23.41;44.39;98591.25;5054165;28;20048;-90
2021/08/16 02:48:45;;;;;;;12.15;7.35;;;;;;;23.19;44.48;98572.31;5055546;28;20037;-92
2021/08/16 02:51:11;;;;;;;16.13;6.65;;;;;;;23.01;44.55;98552.97;5055045;28;20041;-92
2021/08/16 02:53:38;;;;;;;14.18;6.85;;;;;;;23.02;44.55;98560.16;5054752;28;20487;-92
2021/08/16 02:56:05;;;;;;;15.73;6.93;;;;;;;23.14;44.22;98567.28;5055628;28;20043;-90
2021/08/16 02:58:31;;;;;;;14.52;7.13;;;;;;;23.13;44.65;98560.97;5054385;28;20099;-91
2021/08/16 03:00:56;;;;;;;16.33;7.30;;;;;;;23.16;44.61;98555.31;5052755;28;20040;-92
2021/08/16 03:03:22;;;;;;;15.95;6.95;;;;;;;23.22;44.75;98547.66;5054632;28;20044;-92
2021/08/16 03:05:48;;;;;;;12.35;6.60;;;;;;;23.26;45.12;98535.56;5054777;28;20411;-92
2021/08/16 03:08:14;;;;;;;16.20;6.97;;;;;;;23.21;44.77;98505.25;5056338;28;20044;-90
2021/08/16 03:10:41;;;;;;;22.48;6.60;;;;;;;23.16;46.58;98498.34;5055889;28;20040;-92
2021/08/16 03:13:07;;;;;;;15.50;6.72;;;;;;;23.13;47.21;98525.72;5054252;28;20029;-91
2021/08/16 03:15:33;;;;;;;14.35;6.35;;;;;;;23.16;46.91;98522.75;5052699;28;20128;-92
2021/08/16 03:18:00;;;;;;;15.02;6.40;;;;;;;23.28;47.10;98525.44;5061246;28;20371;-92
2021/08/16 03:20:26;;;;;;;11.25;6.03;;;;;;;23.09;47.62;98526.94;5055809;28;20056;-91
2021/08/16 03:22:52;;;;;;;17.95;6.32;;;;;;;23.00;47.40;98515.97;5054213;28;20095;-90
2021/08/16 03:25:17;;;;;;;18.55;6.60;;;;;;;23.09;47.18;98526.09;5054698;28;20410;-90
2021/08/16 03:27:45;;;;;;;15.10;6.53;;;;;;;23.26;46.63;98528.28;5054276;28;20036;-91
2021/08/16 03:30:13;;;;;;;13.10;6.18;;;;;;;23.26;46.98;98527.41;5054142;28;20045;-93
2021/08/16 03:32:39;;;;;;;23.60;6.80;;;;;;;23.13;46.48;98517.56;5055715;28;20044;-92
2021/08/16 03:35:06;;;;;;;10.43;6.22;;;;;;;23.20;46.44;98526.06;5055788;28;20040;-92
2021/08/16 03:37:34;;;;;;;15.35;6.72;;;;;;;23.31;45.78;98536.03;5055196;28;20487;-93
2021/08/16 03:40:01;;;;;;;12.88;6.38;;;;;;;23.34;45.71;98511.38;5055830;28;20399;-91
2021/08/16 03:42:26;;;;;;;11.90;6.18;;;;;;;23.50;45.82;98510.94;5056157;28;20111;-91
2021/08/16 03:44:54;;;;;;;15.63;7.18;;;;;;;23.38;46.00;98513.69;5054000;28;20129;-91
2021/08/16 03:47:20;;;;;;;18.48;6.82;;;;;;;23.24;46.07;98524.81;5049738;28;20075;-91
2021/08/16 03:49:45;;;;;;;11.93;6.30;;;;;;;23.23;45.79;98519.53;5053582;28;20060;-92
2021/08/16 03:52:11;;;;;;;18.15;6.97;;;;;;;23.20;45.81;98501.66;5053568;28;20069;-91
2021/08/16 03:54:37;;;;;;;13.20;6.90;;;;;;;23.14;45.70;98502.19;5060123;28;20032;-91
2021/08/16 03:57:04;;;;;;;14.45;6.03;;;;;;;23.11;45.71;98497.00;5055470;28;20045;-92
2021/08/16 03:59:33;;;;;;;13.75;6.50;;;;;;;23.23;45.01;98482.44;5053308;28;20048;-91
2021/08/16 04:02:01;;;;;;;15.45;6.53;;;;;;;23.20;45.18;98473.66;5050978;28;20040;-89
2021/08/16 04:04:26;;;;;;;16.83;6.85;;;;;;;23.11;45.78;98469.88;5053151;28;20052;-92
2021/08/16 04:06:53;;;;;;;20.17;6.90;;;;;;;23.24;45.39;98475.13;5054565;28;20037;-89
2021/08/16 04:09:19;;;;;;;16.73;6.57;;;;;;;23.15;45.33;98450.50;5054922;28;20083;-90
2021/08/16 04:11:45;;;;;;;17.17;6.35;;;;;;;23.29;45.41;98462.03;5054871;28;20041;-89
2021/08/16 04:14:10;;;;;;;16.15;7.32;;;;;;;23.25;45.51;98472.31;5057218;28;20047;-91
2021/08/16 04:16:36;;;;;;;20.42;6.65;;;;;;;23.16;45.28;98468.50;5051311;28;20037;-91
2021/08/16 04:19:04;;;;;;;16.65;7.43;;;;;;;23.18;45.90;98476.50;5053699;28;20091;-90
2021/08/16 04:21:30;;;;;;;13.75;6.70;;;;;;;23.20;45.78;98470.97;5053534;28;20049;-91
2021/08/16 04:23:56;;;;;;;12.85;6.93;;;;;;;23.23;45.95;98465.28;5053276;28;20094;-92
2021/08/16 04:26:22;;;;;;;22.00;6.68;;;;;;;23.19;46.70;98493.66;5053392;28;20403;-92
2021/08/16 04:28:47;;;;;;;20.27;8.05;;;;;;;23.17;46.36;98489.22;5053170;28;20116;-92
2021/08/16 04:31:13;;;;;;;18.35;7.20;;;;;;;23.22;45.88;98461.69;5051209;28;20133;-91
2021/08/16 04:33:39;;;;;;;15.10;7.15;;;;;;;23.22;45.50;98463.56;5052946;28;20094;-91
2021/08/16 04:36:06;;;;;;;14.32;7.13;;;;;;;23.30;46.32;98491.75;5053370;28;20037;-91
2021/08/16 04:38:32;;;;;;;14.65;7.03;;;;;;;23.19;46.30;98477.38;5054125;28;20065;-91
2021/08/16 04:40:58;;;;;;;16.38;6.75;;;;;;;23.20;46.73;98481.81;5054735;28;20572;-90
2021/08/16 04:43:24;;;;;;;13.25;6.47;;;;;;;23.23;46.10;98473.44;5053056;28;20037;-92
2021/08/16 04:45:50;;;;;;;21.08;7.68;;;;;;;23.24;46.20;98483.28;5051071;28;20047;-91
2021/08/16 04:48:16;;;;;;;21.50;7.28;;;;;;;23.32;46.58;98484.34;5052730;28;20033;-91
2021/08/16 04:50:41;;;;;;;20.90;6.88;;;;;;;23.37;46.33;98465.81;5052802;28;20044;-91
2021/08/16 04:53:09;;;;;;;22.70;7.15;;;;;;;23.47;46.37;98497.63;5052826;28;20033;-90
2021/08/16 04:55:35;;;;;;;23.52;8.07;;;;;;;23.18;46.81;98498.19;5054526;28;20036;-91
2021/08/16 04:58:01;;;;;;;17.25;6.82;;;;;;;23.29;47.73;98503.63;5052672;28;20057;-92
2021/08/16 05:00:26;;;;;;;12.93;6.85;;;;;;;23.35;46.45;98486.78;5050507;28;20045;-91
2021/08/16 05:02:53;;;;;;;18.38;7.68;;;;;;;23.22;46.45;98510.53;5055032;28;20052;-93
2021/08/16 05:05:21;;;;;;;13.70;7.30;;;;;;;23.30;46.86;98501.75;5054762;28;20068;-91
2021/08/16 05:07:48;;;;;;;13.43;7.10;;;;;;;23.40;46.00;98478.28;5053293;28;20115;-92
2021/08/16 05:10:16;;;;;;;13.75;7.47;;;;;;;23.51;46.31;98477.38;5053196;28;20091;-92
2021/08/16 05:12:42;;;;;;;18.95;7.88;;;;;;;23.64;46.36;98483.50;5053930;28;20037;-94
2021/08/16 05:15:09;;;;;;;21.77;7.57;;;;;;;23.66;46.17;98472.47;5054265;28;20087;-92
2021/08/16 05:17:35;;;;;;;24.35;7.40;;;;;;;23.76;46.64;98465.31;5055830;28;20033;-92
2021/08/16 05:20:03;;;;;;;24.23;8.88;;;;;;;23.82;46.22;98459.34;5057898;28;20053;-90
2021/08/16 05:22:29;;;;;;;20.98;7.63;;;;;;;23.75;46.77;98455.41;5059460;28;20045;-91
2021/08/16 05:24:55;;;;;;;21.52;7.93;;;;;;;23.57;46.38;98450.59;5060899;28;20402;-92
2021/08/16 05:27:22;;;;;;;16.98;7.50;;;;;;;23.49;47.15;98447.66;5059927;28;20044;-91
2021/08/16 05:29:48;;;;;;;14.70;7.30;;;;;;;23.66;46.83;98448.03;5059376;28;20068;-92
2021/08/16 05:32:14;;;;;;;17.42;7.38;;;;;;;23.91;45.21;98444.09;5057329;28;20525;-92
2021/08/16 05:34:40;;;;;;;25.10;9.25;;;;;;;23.72;45.10;98455.66;5059424;28;20041;-91
2021/08/16 05:37:06;;;;;;;16.58;7.47;;;;;;;23.83;44.56;98463.78;5059357;28;20045;-92
2021/08/16 05:39:31;;;;;;;14.88;7.40;;;;;;;23.90;44.20;98450.53;5057425;28;20124;-91
2021/08/16 05:41:57;;;;;;;25.23;7.63;;;;;;;24.09;44.95;98464.22;5057592;28;20036;-92
2021/08/16 05:44:24;;;;;;;16.80;7.45;;;;;;;24.25;44.79;98466.47;5057583;28;20048;-93
2021/08/16 05:46:50;;;;;;;23.10;7.53;;;;;;;24.42;45.19;98486.72;5055645;28;20044;-92
2021/08/16 05:49:16;;;;;;;16.77;7.55;;;;;;;24.47;46.11;98498.03;5057389;28;20033;-93
2021/08/16 05:51:42;;;;;;;21.77;7.32;;;;;;;24.51;45.32;98494.06;5057973;28;20041;-91
2021/08/16 05:54:08;;;;;;;13.73;7.15;;;;;;;24.57;43.40;98498.09;5058011;28;20566;-93
2021/08/16 05:56:33;;;;;;;15.25;6.45;;;;;;;24.63;43.34;98494.81;5063089;28;20051;-91
2021/08/16 05:58:59;;;;;;;17.33;7.15;;;;;;;24.73;44.20;98514.75;5061341;28;20122;-92
2021/08/16 06:01:27;;;;;;;16.45;7.18;;;;;;;24.71;42.87;98499.59;5057573;28;20048;-92
2021/08/16 06:03:52;;;;;;;18.63;7.07;;;;;;;24.89;44.98;98502.50;5059355;28;20112;-91
2021/08/16 06:06:18;;;;;;;16.80;7.40;;;;;;;25.06;44.08;98515.44;5062682;28;20439;-90
2021/08/16 06:08:44;;;;;;;16.73;7.15;;;;;;;25.02;43.94;98484.91;5059349;28;20052;-92
2021/08/16 06:11:10;;;;;;;18.10;7.45;;;;;;;25.10;43.25;98486.09;5059510;28;20052;-94
2021/08/16 06:13:36;;;;;;;20.67;7.90;;;;;;;25.35;44.78;98498.31;5058413;28;20059;-91
2021/08/16 06:16:02;;;;;;;18.90;7.47;;;;;;;25.44;44.43;98510.22;5056497;28;20175;-91
2021/08/16 06:18:29;;;;;;;20.65;7.10;;;;;;;25.48;45.67;98492.59;5059633;28;20402;-93
2021/08/16 06:20:55;;;;;;;16.77;6.63;;;;;;;25.64;45.07;98483.88;5057351;28;20087;-91
2021/08/16 06:23:20;;;;;;;19.00;7.65;;;;;;;25.95;43.75;98506.38;5059049;28;20033;-93
2021/08/16 06:25:46;;;;;;;18.10;7.32;;;;;;;26.23;41.14;98520.97;5057189;28;20754;-92
2021/08/16 06:28:12;;;;;;;20.92;7.68;;;;;;;26.63;39.67;98525.31;5055695;28;20033;-94
2021/08/16 06:30:38;;;;;;;18.38;7.63;;;;;;;26.93;39.23;98520.59;5054862;28;20033;-92
2021/08/16 06:33:04;;;;;;;19.20;7.82;;;;;;;27.03;37.34;98513.22;5058066;28;20052;-91
2021/08/16 06:35:31;;;;;;;19.35;8.07;;;;;;;27.27;36.36;98517.28;5057928;28;20090;-92
2021/08/16 06:37:59;;;;;;;15.98;8.30;;;;;;;27.49;37.09;98519.53;5056169;28;20116;-94
2021/08/16 06:40:25;;;;;;;15.98;8.43;;;;;;;27.28;36.27;98521.69;5056604;28;20055;-92
2021/08/16 06:42:51;;;;;;;13.88;7.68;;;;;;;26.96;37.59;98512.97;5056114;28;20390;-93
2021/08/16 06:45:17;;;;;;;16.73;7.75;;;;;;;26.79;37.49;98520.06;5055714;28;20057;-93
2021/08/16 06:47:42;;;;;;;18.30;8.45;;;;;;;26.81;37.86;98504.41;5056149;28;20041;-93
2021/08/16 06:50:09;;;;;;;20.58;7.97;;;;;;;27.10;37.70;98522.50;5056187;28;20120;-93
2021/08/16 06:52:36;;;;;;;19.92;7.97;;;;;;;27.16;36.56;98516.44;5056076;28;20049;-94
2021/08/16 06:55:03;;;;;;;19.70;8.13;;;;;;;27.53;36.24;98520.94;5056485;28;20040;-92
2021/08/16 06:57:32;;;;;;;27.52;9.00;;;;;;;27.59;35.22;98517.59;5055890;28;20048;-94
2021/08/16 06:59:58;;;;;;;19.52;8.55;;;;;;;27.48;35.20;98531.50;5055961;28;20102;-92
2021/08/16 07:02:24;;;;;;;18.38;8.45;;;;;;;27.59;35.72;98514.88;5055977;28;20044;-93
2021/08/16 07:04:50;;;;;;;22.35;8.73;;;;;;;27.94;34.95;98504.13;5062961;28;20482;-93
2021/08/16 07:07:17;;;;;;;22.50;8.68;;;;;;;28.52;34.36;98524.53;5066274;28;20041;-95
2021/08/16 07:09:44;;;;;;;20.63;8.48;;;;;;;28.79;32.75;98528.97;5055829;28;20533;-95
2021/08/16 07:12:10;;;;;;;23.15;8.93;;;;;;;29.16;32.60;98528.63;5055579;28;20106;-94
2021/08/16 07:14:36;;;;;;;23.05;8.43;;;;;;;29.22;32.09;98535.34;5056148;28;20041;-93
2021/08/16 07:17:02;;;;;;;23.95;8.48;;;;;;;29.28;31.69;98529.19;5055307;28;20064;-93
2021/08/16 07:19:28;;;;;;;29.17;9.02;;;;;;;29.88;31.03;98522.63;5055332;28;20033;-94
2021/08/16 07:21:54;;;;;;;22.65;8.18;;;;;;;30.03;31.84;98531.88;5055595;28;20044;-93
2021/08/16 07:24:21;;;;;;;20.77;8.48;;;;;;;29.74;30.84;98515.09;5054910;28;20367;-91
2021/08/16 07:26:50;;;;;;;20.65;8.23;;;;;;;28.72;32.26;98528.75;5055911;28;20076;-94
2021/08/16 07:29:16;;;;;;;24.23;7.78;;;;;;;28.74;32.45;98534.94;5055487;28;20875;-92
2021/08/16 07:31:42;;;;;;;29.55;8.32;;;;;;;28.91;32.37;98513.09;5054487;28;20056;-95
2021/08/16 07:34:07;;;;;;;20.38;8.80;;;;;;;29.11;31.69;98528.28;5049812;28;20041;-92
2021/08/16 07:36:33;;;;;;;24.77;8.60;;;;;;;28.98;32.66;98516.91;5054345;28;20040;-93
2021/08/16 07:38:59;;;;;;;25.73;8.77;;;;;;;28.79;32.77;98526.22;5054426;28;20029;-92
2021/08/16 07:41:25;;;;;;;20.15;8.88;;;;;;;28.95;32.99;98540.00;5054049;28;20041;-92
2021/08/16 07:43:52;;;;;;;30.95;8.93;;;;;;;28.93;32.40;98536.56;5055573;28;20035;-92
2021/08/16 07:46:18;;;;;;;26.75;8.48;;;;;;;28.79;32.35;98524.34;5055045;28;20071;-93
2021/08/16 07:48:44;;;;;;;25.25;8.93;;;;;;;28.76;33.55;98540.25;5058231;28;20025;-93
2021/08/16 07:51:10;;;;;;;25.52;8.70;;;;;;;28.70;32.84;98525.31;5055955;28;20037;-91
2021/08/16 07:53:35;;;;;;;28.50;9.02;;;;;;;28.50;33.36;98521.09;5054735;28;20037;-92
2021/08/16 07:56:01;;;;;;;28.55;8.95;;;;;;;28.30;34.57;98521.31;5055947;28;20048;-93
2021/08/16 07:58:27;;;;;;;26.35;9.02;;;;;;;28.32;34.22;98534.78;5055433;28;20453;-92
2021/08/16 08:00:55;;;;;;;22.38;8.00;;;;;;;28.28;34.07;98528.81;5054150;28;20048;-93
2021/08/16 08:03:20;;;;;;;33.63;9.50;;;;;;;28.18;34.04;98530.78;5061386;28;20128;-94
2021/08/16 08:05:46;;;;;;;24.17;8.85;;;;;;;28.32;34.66;98524.69;5053930;28;20462;-93
2021/08/16 08:08:12;;;;;;;24.92;9.20;;;;;;;28.43;34.77;98529.06;5055542;28;20037;-95
2021/08/16 08:10:38;;;;;;;28.20;9.10;;;;;;;28.27;33.83;98517.00;5055900;28;20482;-91
2021/08/16 08:13:04;;;;;;;35.50;9.07;;;;;;;28.49;34.11;98511.19;5055356;28;20494;-92
2021/08/16 08:15:29;;;;;;;40.13;8.55;;;;;;;28.84;34.25;98532.06;5052679;28;20038;-93
2021/08/16 08:17:57;;;;;;;25.48;7.82;;;;;;;28.90;32.82;98511.38;5054231;28;20045;-93
2021/08/16 08:20:23;;;;;;;33.72;9.52;;;;;;;29.14;31.90;98533.41;5055365;28;20135;-93
2021/08/16 08:22:49;;;;;;;25.40;7.90;;;;;;;29.25;31.86;98535.00;5054099;28;20037;-94
2021/08/16 08:25:14;;;;;;;26.25;7.75;;;;;;;29.23;31.52;98534.28;5054939;28;20041;-94
2021/08/16 08:27:40;;;;;;;29.60;8.93;;;;;;;29.43;31.10;98515.69;5054796;28;20041;-94
2021/08/16 08:30:08;;;;;;;28.58;8.00;;;;;;;29.57;31.93;98525.16;5058419;28;20052;-93
2021/08/16 08:32:43;;;;;;;31.80;8.27;;;;;;;29.75;30.88;98533.25;5054296;28;20041;-94
2021/08/16 08:35:11;;;;;;;27.25;7.47;;;;;;;29.49;30.41;98540.56;5049672;28;20037;-94
2021/08/16 08:37:37;;;;;;;31.33;8.02;;;;;;;29.07;30.84;98540.53;5057929;28;20041;-94
2021/08/16 08:40:04;;;;;;;32.38;7.70;;;;;;;29.68;30.65;98533.03;5058592;28;20041;-95
2021/08/16 08:42:31;;;;;;;32.45;8.15;;;;;;;29.89;29.28;98516.13;5061332;28;20040;-94
2021/08/16 08:44:57;;;;;;;26.92;7.65;;;;;;;30.51;28.99;98521.06;5056326;28;20090;-95
2021/08/16 08:47:23;;;;;;;34.40;7.72;;;;;;;31.08;28.13;98529.16;5056010;28;20449;-94
2021/08/16 08:49:49;;;;;;;28.77;7.85;;;;;;;31.44;27.42;98514.88;5057914;28;20033;-95
2021/08/16 08:52:17;;;;;;;28.70;8.13;;;;;;;31.35;28.20;98510.47;5053342;28;20037;-94
2021/08/16 08:54:43;;;;;;;23.50;7.50;;;;;;;31.79;28.30;98522.75;5069737;28;20066;-95
2021/08/16 08:57:17;;;;;;;28.92;7.50;;;;;;;31.85;26.99;98508.25;5060963;28;20045;-95
2021/08/16 08:59:43;;;;;;;24.80;8.40;;;;;;;31.86;27.23;98502.59;5052328;28;20139;-96
2021/08/16 09:02:12;;;;;;;30.42;8.38;;;;;;;32.03;26.07;98510.72;5059064;28;20044;-95
2021/08/16 09:04:50;;;;;;;36.58;8.35;;;;;;;32.04;26.25;98524.28;5061529;28;20100;-94
2021/08/16 09:07:17;;;;;;;26.88;7.72;;;;;;;31.93;26.48;98495.28;5058907;28;20068;-95
2021/08/16 09:09:52;;;;;;;26.65;8.25;;;;;;;32.17;25.62;98490.66;5063594;28;20045;-95
2021/08/16 09:12:27;;;;;;;22.60;7.22;;;;;;;32.38;25.73;98511.06;5060054;28;20073;-93
2021/08/16 09:14:54;;;;;;;29.45;8.18;;;;;;;31.92;25.63;98504.59;5063093;28;20103;-94
2021/08/16 09:17:30;;;;;;;27.88;8.40;;;;;;;32.04;25.46;98504.19;5058176;28;20076;-94
2021/08/16 09:20:00;;;;;;;29.77;7.70;;;;;;;31.86;25.44;98477.84;5072127;28;20041;-94
2021/08/16 09:22:36;;;;;;;31.27;7.78;;;;;;;32.33;25.08;98486.88;5065496;28;20040;-94
2021/08/16 09:25:08;;;;;;;28.38;7.43;;;;;;;32.60;25.17;98490.91;5077502;28;20052;-93
2021/08/16 09:27:44;;;;;;;23.92;6.20;;;;;;;32.75;24.26;98457.88;5061393;28;20049;-94
2021/08/16 09:30:11;;;;;;;22.48;7.00;;;;;;;32.22;24.34;98488.19;5057347;28;20033;-95
2021/08/16 09:32:37;;;;;;;24.50;7.13;;;;;;;32.67;24.20;98480.84;5058305;28;20033;-95
2021/08/16 09:35:06;;;;;;;28.77;7.57;;;;;;;31.95;24.62;98464.88;5058424;28;20296;-93
2021/08/16 09:37:32;;;;;;;25.05;7.25;;;;;;;32.07;24.77;98457.88;5056226;28;20163;-94
2021/08/16 09:40:06;;;;;;;27.27;7.15;;;;;;;32.63;23.75;98481.44;5056266;28;20041;-95
2021/08/16 09:42:43;;;;;;;25.17;7.22;;;;;;;32.86;23.55;98462.91;5048327;28;20446;-93
2021/08/16 09:45:13;;;;;;;25.80;6.17;;;;;;;33.14;23.32;98467.72;5049791;28;20065;-93
2021/08/16 09:47:45;;;;;;;24.35;7.47;;;;;;;33.05;22.90;98446.78;5050063;28;20041;-94
2021/08/16 09:50:12;;;;;;;24.58;7.10;;;;;;;33.18;23.36;98449.75;5059052;28;20495;-93
2021/08/16 09:52:40;;;;;;;23.58;6.28;;;;;;;33.14;23.00;98446.53;5057780;28;20044;-94
2021/08/16 09:55:09;;;;;;;26.52;7.47;;;;;;;33.22;22.84;98431.78;5050736;28;20045;-95
2021/08/16 09:57:35;;;;;;;22.25;6.75;;;;;;;33.30;22.75;98452.84;5057924;28;20048;-93
2021/08/16 10:00:02;;;;;;;29.05;6.60;;;;;;;33.33;23.54;98436.78;5055679;28;20559;-92
2021/08/16 10:02:29;;;;;;;27.53;7.60;;;;;;;33.53;23.27;98438.91;5055640;28;20064;-92
2021/08/16 10:04:56;;;;;;;25.40;7.20;;;;;;;33.58;22.99;98410.72;5054545;28;20048;-92
2021/08/16 10:07:28;;;;;;;32.13;6.68;;;;;;;33.93;22.48;98419.97;5058826;28;20044;-93
2021/08/16 10:09:56;;;;;;;28.83;7.05;;;;;;;34.04;21.96;98422.19;5061144;28;20478;-94
2021/08/16 10:12:24;;;;;;;20.75;6.30;;;;;;;34.08;22.48;98417.97;5057830;28;20072;-89
2021/08/16 10:14:51;;;;;;;26.63;6.47;;;;;;;33.92;22.13;98412.75;5058640;28;20128;-93
2021/08/16 10:17:20;;;;;;;26.27;6.63;;;;;;;33.96;22.56;98401.13;5054583;28;20078;-93
2021/08/16 10:19:50;;;;;;;22.48;6.25;;;;;;;34.20;22.23;98410.03;5054072;28;20033;-92
2021/08/16 10:22:16;;;;;;;29.80;6.57;;;;;;;34.38;22.10;98416.94;5056655;28;20067;-92
2021/08/16 10:24:42;;;;;;;30.30;6.85;;;;;;;34.42;22.25;98412.69;5056477;28;20037;-92
2021/08/16 10:27:10;;;;;;;23.80;6.13;;;;;;;34.32;22.17;98410.31;5057560;28;20487;-93
2021/08/16 10:29:38;;;;;;;23.30;7.15;;;;;;;33.90;22.81;98409.34;5060737;28;20037;-93
2021/08/16 10:32:09;;;;;;;27.00;7.22;;;;;;;34.19;22.34;98402.78;5054911;28;20398;-93
2021/08/16 10:34:37;;;;;;;20.63;6.43;;;;;;;34.23;22.88;98403.25;5056299;28;20045;-94
2021/08/16 10:37:04;;;;;;;;;;;;;;;34.19;23.23;98401.94;5057152;28;20041;-94
2021/08/16 10:39:38;;;;;;;22.08;6.75;;;;;;;34.21;22.89;98378.59;5056926;28;19925;-93
2021/08/16 10:42:07;;;;;;;24.83;6.20;;;;;;;34.28;23.02;98401.56;5056371;28;20048;-91
2021/08/16 10:44:40;;;;;;;26.85;6.30;;;;;;;34.18;23.24;98398.34;5056847;28;20079;-93
2021/08/16 10:47:07;;;;;;;20.25;6.00;;;;;;;34.01;23.33;98383.97;5054914;28;20410;-93
2021/08/16 10:49:34;;;;;;;19.10;6.43;;;;;;;34.25;23.33;98388.19;5056508;28;20549;-94
2021/08/16 10:51:59;;;;;;;28.58;7.78;;;;;;;34.08;23.71;98387.63;5056646;28;20065;-95
2021/08/16 10:54:27;;;;;;;26.63;6.55;;;;;;;34.15;23.65;98369.22;5056026;28;20072;-92
2021/08/16 10:56:55;;;;;;;29.45;7.03;;;;;;;34.37;23.90;98380.16;5057046;28;20132;-92
2021/08/16 10:59:23;;;;;;;25.15;7.60;;;;;;;34.29;23.66;98383.13;5059546;28;20041;-91
2021/08/16 11:01:51;;;;;;;22.73;6.20;;;;;;;34.34;23.75;98364.03;5055710;28;20037;-92
2021/08/16 11:04:26;;;;;;;;;;;;;;;34.56;23.95;98384.94;5056818;28;20056;-91
2021/08/16 11:06:53;;;;;;;22.92;6.40;;;;;;;34.39;24.29;98371.69;5056815;28;20337;-92
2021/08/16 11:09:25;;;;;;;25.33;7.63;;;;;;;33.91;24.60;98355.88;5058364;28;20525;-92
2021/08/16 11:11:52;;;;;;;24.15;7.15;;;;;;;34.33;24.59;98373.34;5056836;28;20132;-91
2021/08/16 11:14:25;;;;;;;29.65;6.88;;;;;;;34.41;24.72;98366.81;5056761;28;20447;-93
2021/08/16 11:16:54;;;;;;;23.08;6.95;;;;;;;34.33;25.17;98367.84;5057116;28;20065;-93
2021/08/16 11:19:20;;;;;;;23.00;7.38;;;;;;;34.52;25.75;98364.31;5059166;28;20037;-94
2021/08/16 11:21:57;;;;;;;26.02;7.70;;;;;;;34.45;26.69;98362.59;5058928;28;20422;-92
2021/08/16 11:24:27;;;;;;;30.00;7.13;;;;;;;33.80;27.61;98349.00;5057017;28;20056;-94